Condiciones actuales en los principales Aeropuertos de España-Datos Metar

 

LEAL - Alicante
Actualización: 29/06/2022 20:30
Despejado
Despejado
 Viento del ESE
Viento: ESE 9 km/h
Temperatura: 26°C
Rocío: 20°C
Humedad: 70%
Barómetro: 1011 hPa
Resumen: Despejado
Visibilidad: greater than 10 km
2022/06/29 18:30 LEAL 291830Z 11005KT 070V160 CAVOK 26/20 Q1011 NOSIG
LEAB - Albacete
Actualización: 29/06/2022 20:30
Despejado
Despejado
 Viento del SSE
Viento: SSE 19 km/h
Temperatura: 29°C
Rocío: 13°C
Humedad: 37%
Barómetro: 1012 hPa
Resumen: Despejado
Visibilidad: greater than 10 km
2022/06/29 18:30 LEAB 291830Z 16010KT 120V190 CAVOK 29/13 Q1012 NOSIG
LEAM - Almería
Actualización: 29/06/2022 20:30
Despejado
Despejado
 Viento del SSE
Viento: SSE 6 km/h
Temperatura: 22°C
Rocío: 18°C
Humedad: 78%
Barómetro: 1011 hPa
Resumen: Despejado
Visibilidad: greater than 10 km
2022/06/29 18:30 LEAM 291830Z 16003KT 100V240 CAVOK 22/18 Q1011
 
LEAS - Asturias/Aviles
Actualización: 29/06/2022 20:30
Mostly Cloudy
Mostly Cloudy
 Viento del O
Viento: O 15 km/h
Temperatura: 16°C
Rocío: 11°C
Humedad: 72%
Barómetro: 1018 hPa
Nubosidad: Mostly Cloudy
Visibilidad: 10 km
Cloud details: Few Clouds 792 m
Mostly Cloudy 1402 m
2022/06/29 18:30 LEAS 291830Z 27008KT 230V320 9999 FEW026 BKN046 16/11 Q1018 NOSIG
LEBZ - Badajoz/Talavera la Real
Actualización: 29/06/2022 20:30
Despejado
Despejado
 Viento del O
Viento: O 28 km/h
Temperatura: 27°C
Rocío: 6°C
Humedad: 26%
Barómetro: 1012 hPa
Resumen: Despejado
Visibilidad: greater than 10 km
2022/06/29 18:30 LEBZ 291830Z 27015KT CAVOK 27/06 Q1012
LEBL - Barcelona
Actualización: 29/06/2022 20:30
Few Clouds
Few Clouds
 Viento del SSO
Viento: SSO 17 km/h
Temperatura: 24°C
Rocío: 20°C
Humedad: 78%
Barómetro: 1011 hPa
Nubosidad: Few Clouds
Visibilidad: 10 km
Cloud details: Few Clouds 549 m
2022/06/29 18:30 LEBL 291830Z 21009KT 9999 FEW018 24/20 Q1011 NOSIG
 
LEBB - Bilbao
Actualización: 29/06/2022 20:30
Mostly Cloudy
Mostly Cloudy
 Viento del ONO
Viento: ONO 15 km/h
Temperatura: 16°C
Rocío: 15°C
Humedad: 94%
Barómetro: 1017 hPa
Nubosidad: Mostly Cloudy
Visibilidad: 10 km
Cloud details: Partly Cloudy 427 m
Partly Cloudy 671 m
Mostly Cloudy 1158 m
2022/06/29 18:30 LEBB 291830Z 29008KT 9999 SCT014 SCT022 BKN038 16/15 Q1017 TEMPO 3000 DZ BKN010
LEBG - Burgos/Villafría
Actualización: 29/06/2022 20:30
Partly Cloudy
Partly Cloudy
 Viento del NE
Viento: NE 28 km/h
Temperatura: 16°C
Rocío: 9°C
Humedad: 63%
Barómetro: 1015 hPa
Nubosidad: Partly Cloudy
Visibilidad: 10 km
Cloud details: Partly Cloudy 671 m
2022/06/29 18:30 LEBG 291830Z AUTO 04015KT 010V070 9999 SCT022 16/09 Q1015
LEBA - Córdoba
Actualización: 29/06/2022 20:30
Despejado
Despejado
 Viento del OSO
Viento: OSO 17 km/h
Temperatura: 33°C
Rocío: 3°C
Humedad: 15%
Barómetro: 1009 hPa
Resumen: Despejado
Visibilidad: greater than 10 km
2022/06/29 18:30 LEBA 291830Z AUTO 25009KT 220V280 CAVOK 33/03 Q1009
 
LEGE - Gerona
Actualización: 29/06/2022 20:30
Few Clouds
Few Clouds
 Viento del S
Viento: S 26 km/h
Temperatura: 25°C
Rocío: 11°C
Humedad: 42%
Barómetro: 1010 hPa
Nubosidad: Few Clouds
Visibilidad: 10 km
Cloud details: Few Clouds 1524 m
2022/06/29 18:30 LEGE 291830Z 19014KT 160V220 9999 FEW050 25/11 Q1010
LEGR - Granada
Actualización: 29/06/2022 20:30
Despejado
Despejado
 Viento del O
Viento: O 15 km/h
Temperatura: 32°C
Rocío: 9°C
Humedad: 24%
Barómetro: 1012 hPa
Resumen: Despejado
Visibilidad: greater than 10 km
2022/06/29 18:30 LEGR 291830Z 28008KT 250V330 CAVOK 32/09 Q1012
GCHI - Hierro
Actualización: 29/06/2022 20:30
Mostly Cloudy
Mostly Cloudy
 Viento del N
Viento: N 33 km/h
Temperatura: 22°C
Rocío: 16°C
Humedad: 69%
Barómetro: 1020 hPa
Nubosidad: Mostly Cloudy
Visibilidad: 10 km
Cloud details: Partly Cloudy 792 m
Mostly Cloudy 1158 m
2022/06/29 18:30 GCHI 291830Z AUTO 01018KT 320V040 9999 SCT026 BKN038 22/16 Q1020
 
LEIB - Ibiza
Actualización: 29/06/2022 20:30
Despejado
Despejado
 Viento del ESE
Viento: ESE 11 km/h
Temperatura: 26°C
Rocío: 20°C
Humedad: 70%
Barómetro: 1011 hPa
Resumen: Despejado
Visibilidad: greater than 10 km
2022/06/29 18:30 LEIB 291830Z 12006KT 080V170 CAVOK 26/20 Q1011 NOSIG
LEJR - Jerez de la Frontera
Actualización: 29/06/2022 21:00
Despejado
Despejado
 Viento del OSO
Viento: OSO 20 km/h
Temperatura: 26°C
Rocío: 12°C
Humedad: 42%
Barómetro: 1012 hPa
Resumen: Despejado
Visibilidad: greater than 10 km
2022/06/29 19:00 LEJR 291900Z 24011KT CAVOK 26/12 Q1012
LECO - A Coruña
Actualización: 29/06/2022 20:30
Mostly Cloudy
Mostly Cloudy
 Viento del NO
Viento: NO 17 km/h
Temperatura: 17°C
Rocío: 9°C
Humedad: 59%
Barómetro: 1019 hPa
Nubosidad: Mostly Cloudy
Visibilidad: 10 km
Cloud details: Mostly Cloudy 853 m
2022/06/29 18:30 LECO 291830Z 32009KT 250V010 9999 BKN028 17/09 Q1019 NOSIG
 
GCLA - La Palma
Actualización: 29/06/2022 20:30
Few Clouds
Few Clouds
 Viento del NNE
Viento: NNE 31 km/h
Temperatura: 22°C
Rocío: 17°C
Humedad: 73%
Barómetro: 1020 hPa
Nubosidad: Few Clouds
Visibilidad: 10 km
Cloud details: Few Clouds 1067 m
2022/06/29 18:30 GCLA 291830Z 02017KT 9999 FEW035 22/17 Q1020
GCRR - Lanzarote
Actualización: 29/06/2022 20:30
Mostly Cloudy
Mostly Cloudy
 Viento del NNE
Viento: NNE 35 km/h
Temperatura: 23°C
Rocío: 15°C
Humedad: 61%
Barómetro: 1018 hPa
Nubosidad: Mostly Cloudy
Visibilidad: 10 km
Cloud details: Few Clouds 762 m
Mostly Cloudy 1067 m
2022/06/29 18:30 GCRR 291830Z 02019KT 350V050 9999 FEW025 BKN035 23/15 Q1018
GCLP - Las Palmas
Actualización: 29/06/2022 20:30
Mostly Cloudy
Mostly Cloudy
 Viento del N
Viento: N 48 km/h
Temperatura: 23°C
Rocío: 15°C
Humedad: 61%
Barómetro: 1018 hPa
Nubosidad: Mostly Cloudy
Visibilidad: 10 km
Cloud details: Partly Cloudy 914 m
Mostly Cloudy 1067 m
2022/06/29 18:30 GCLP 291830Z 01026KT 9999 SCT030 BKN035 23/15 Q1018 WS ALL RWY NOSIG
 
LELN - León
Actualización: 29/06/2022 20:30
Few Clouds
Few Clouds
 Viento del NO
Viento: NO 20 km/h, Racha: 39 km/h
Temperatura: 18°C
Rocío: 7°C
Humedad: 49%
Barómetro: 1014 hPa
Nubosidad: Few Clouds
Visibilidad: 10 km
Cloud details: Few Clouds 1676 m
2022/06/29 18:30 LELN 291830Z 31011G21KT 270V330 9999 FEW055 18/07 Q1014
LELO - Logroño
Actualización: 29/06/2022 20:30
Despejado
Despejado
 Viento del NO
Viento: NO 15 km/h
Temperatura: 20°C
Rocío: 12°C
Humedad: 60%
Barómetro: 1014 hPa
Resumen: Despejado
Visibilidad: greater than 10 km
2022/06/29 18:30 LELO 291830Z 31008KT 260V010 CAVOK 20/12 Q1014
LECV - Madrid/Colmenar
Actualización: 29/06/2022 20:00
Few Clouds
Few Clouds
 Viento del SO
Viento: SO 22 km/h
Temperatura: 27°C
Rocío: -3°C
Humedad: 14%
Barómetro: 1013 hPa
Nubosidad: Few Clouds
Visibilidad: 10 km
Cloud details: Few Clouds 1829 m
2022/06/29 18:00 LECV 291800Z 23012KT 9999 FEW060 27/M03 Q1013
 
LEMD - Madrid/Barajas
Actualización: 29/06/2022 20:30
Despejado
Despejado
 Viento del OSO
Viento: OSO 22 km/h
Temperatura: 31°C
Rocío: 1°C
Humedad: 15%
Barómetro: 1011 hPa
Resumen: Despejado
Visibilidad: greater than 10 km
2022/06/29 18:30 LEMD 291830Z 24012KT 200V290 CAVOK 31/01 Q1011 NOSIG
LEVS - Madrid/Cuatro Vientos
Actualización: 29/06/2022 20:30
Despejado
Despejado
 Viento del OSO
Viento: OSO 22 km/h
Temperatura: 29°C
Rocío: 1°C
Humedad: 16%
Barómetro: 1012 hPa
Resumen: Despejado
Visibilidad: greater than 10 km
2022/06/29 18:30 LEVS 291830Z 24012KT CAVOK 29/01 Q1012
LEGT - Madrid/Getafe
Actualización: 29/06/2022 20:00
Despejado
Despejado
 Viento del OSO
Viento: OSO 26 km/h
Temperatura: 31°C
Rocío: 1°C
Humedad: 15%
Barómetro: 1011 hPa
Resumen: Despejado
Visibilidad: greater than 10 km
2022/06/29 18:00 LEGT 291800Z 24014KT 200V280 CAVOK 31/01 Q1011
 
LETO - Madrid/Torrejón
Actualización: 29/06/2022 20:30
Despejado
Despejado
 Viento del OSO
Viento: OSO 20 km/h
Temperatura: 31°C
Rocío: 1°C
Humedad: 15%
Barómetro: 1011 hPa
Resumen: Despejado
Visibilidad: greater than 10 km
2022/06/29 18:30 LETO 291830Z 25011KT 210V290 CAVOK 31/01 Q1011 NOSIG
LEMG - Málaga
Actualización: 29/06/2022 20:30
Few Clouds
Few Clouds
 Viento del ESE
Viento: ESE 15 km/h
Temperatura: 22°C
Rocío: 19°C
Humedad: 83%
Barómetro: 1011 hPa
Nubosidad: Few Clouds
Visibilidad: 10 km
Cloud details: Few Clouds 152 m
2022/06/29 18:30 LEMG 291830Z 11008KT 070V140 9999 FEW005 22/19 Q1011 NOSIG
GEML - Melilla
Actualización: 29/06/2022 20:30
Despejado
Despejado
 Viento del ESE
Viento: ESE 9 km/h
Temperatura: 24°C
Rocío: 19°C
Humedad: 74%
Barómetro: 1012 hPa
Resumen: Despejado
Visibilidad: greater than 10 km
2022/06/29 18:30 GEML 291830Z 11005KT 080V140 CAVOK 24/19 Q1012
 
LEMH - Mahón
Actualización: 29/06/2022 20:30
Despejado
Despejado
 Viento del S
Viento: S 13 km/h
Temperatura: 25°C
Rocío: 20°C
Humedad: 74%
Barómetro: 1012 hPa
Resumen: Despejado
Visibilidad: greater than 10 km
2022/06/29 18:30 LEMH 291830Z 18007KT CAVOK 25/20 Q1012
LEMO - Morón de La Frontera
Actualización: 29/06/2022 21:00
Despejado
Despejado
 Viento del OSO
Viento: OSO 26 km/h
Temperatura: 28°C
Rocío: 10°C
Humedad: 32%
Barómetro: 1011 hPa
Resumen: Despejado
Visibilidad: greater than 10 km
2022/06/29 19:00 LEMO 291900Z 24014KT 210V270 CAVOK 28/10 Q1011 NOSIG
LEMI - Murcia/Corvera
Actualización: 29/06/2022 20:30
Despejado
Despejado
 Viento del SSE
Viento: SSE 13 km/h
Temperatura: 26°C
Rocío: 16°C
Humedad: 54%
Barómetro: 1012 hPa
Resumen: Despejado
Visibilidad: greater than 10 km
2022/06/29 18:30 LEMI 291830Z 15007KT 120V190 CAVOK 26/16 Q1012
 
LERI - Murcia/Alcantarilla
Actualización: 29/06/2022 20:00
Despejado
Despejado
 Viento del SSE
Viento: SSE 22 km/h
Temperatura: 29°C
Heat Index: 29°C
Rocío: 16°C
Humedad: 45%
Barómetro: 1011 hPa
Resumen: Despejado
Visibilidad: greater than 10 km
2022/06/29 18:00 LERI 291800Z 15012KT 110V170 CAVOK 29/16 Q1011 NOSIG
LELC - Murcia/San Javier
Actualización: 29/06/2022 20:30
Despejado
Despejado
 Viento del ESE
Viento: ESE 13 km/h
Temperatura: 26°C
Rocío: 21°C
Humedad: 74%
Barómetro: 1011 hPa
Resumen: Despejado
Visibilidad: greater than 10 km
2022/06/29 18:30 LELC 291830Z 12007KT 070V160 CAVOK 26/21 Q1011 NOSIG
LEPA - Palma de Mallorca
Actualización: 29/06/2022 20:30
Despejado
Despejado
 Viento del OSO
Viento: OSO 15 km/h
Temperatura: 27°C
Heat Index: 29°C
Rocío: 21°C
Humedad: 70%
Barómetro: 1011 hPa
Resumen: Despejado
Visibilidad: greater than 10 km
2022/06/29 18:30 LEPA 291830Z 24008KT CAVOK 27/21 Q1011 NOSIG
 
LEPP - Pamplona
Actualización: 29/06/2022 20:30
Mostly Cloudy
Mostly Cloudy
 Viento del NNO
Viento: NNO 24 km/h
Temperatura: 17°C
Rocío: 12°C
Humedad: 73%
Barómetro: 1015 hPa
Nubosidad: Mostly Cloudy
Visibilidad: 10 km
Cloud details: Partly Cloudy 610 m
Mostly Cloudy 945 m
2022/06/29 18:30 LEPP 291830Z 34013KT 9999 SCT020 BKN031 17/12 Q1015
LERS - Reus
Actualización: 29/06/2022 20:30
Few Clouds
Few Clouds
 Viento del SSO
Viento: SSO 9 km/h
Temperatura: 25°C
Rocío: 20°C
Humedad: 74%
Barómetro: 1012 hPa
Nubosidad: Few Clouds
Visibilidad: 10 km
Cloud details: Few Clouds 610 m
2022/06/29 18:30 LERS 291830Z 21005KT 160V250 9999 FEW020 25/20 Q1012
LERT - Rota
Actualización: 29/06/2022 20:30
Despejado
Despejado
 Viento del OSO
Viento: OSO 22 km/h
Temperatura: 23°C
Rocío: 18°C
Humedad: 74%
Barómetro: 1012 hPa
Resumen: Despejado
Visibilidad: greater than 10 km
2022/06/29 18:30 LERT 291830Z 25012KT CAVOK 23/18 Q1012 NOSIG
 
LELL - Sabadell
Actualización: 29/06/2022 20:30
Despejado
Despejado
 Viento del S
Viento: S 13 km/h
Temperatura: 27°C
Heat Index: 27°C
Rocío: 15°C
Humedad: 48%
Barómetro: 1011 hPa
Resumen: Despejado
Visibilidad: greater than 10 km
2022/06/29 18:30 LELL 291830Z 17007KT 120V250 CAVOK 27/15 Q1011
LESA - Salamanca
Actualización: 29/06/2022 20:30
Despejado
Despejado
 Viento del NO
Viento: NO 13 km/h
Temperatura: 23°C
Rocío: 6°C
Humedad: 33%
Barómetro: 1014 hPa
Resumen: Despejado
Visibilidad: greater than 10 km
2022/06/29 18:30 LESA 291830Z 32007KT 280V350 CAVOK 23/06 Q1014
LESO - San Sebastián
Actualización: 29/06/2022 20:30
Cubierto
Cubierto
 Viento del NNO
Viento: NNO 7 km/h
Temperatura: 19°C
Rocío: 15°C
Humedad: 78%
Barómetro: 1016 hPa
Nubosidad: Cubierto
Visibilidad: 10 km
Cloud details: Mostly Cloudy 610 m
Cubierto 1006 m
2022/06/29 18:30 LESO 291830Z 34004KT 290V020 9999 BKN020 OVC033 19/15 Q1016
 
LEXJ - Santander
Actualización: 29/06/2022 20:30
Mostly Cloudy
Mostly Cloudy
 Viento del varies
Viento: varies 4 km/h
Temperatura: 15°C
Rocío: 14°C
Humedad: 94%
Barómetro: 1018 hPa
Nubosidad: Mostly Cloudy
Visibilidad: 10 km
Cloud details: Few Clouds 152 m
Partly Cloudy 488 m
Mostly Cloudy 914 m
2022/06/29 18:30 LEXJ 291830Z VRB02KT 9999 FEW005 SCT016 BKN030 15/14 Q1018
LEPA - Palma de Mallorca
Actualización: 29/06/2022 20:30
Despejado
Despejado
 Viento del OSO
Viento: OSO 15 km/h
Temperatura: 27°C
Heat Index: 29°C
Rocío: 21°C
Humedad: 70%
Barómetro: 1011 hPa
Resumen: Despejado
Visibilidad: greater than 10 km
2022/06/29 18:30 LEPA 291830Z 24008KT CAVOK 27/21 Q1011 NOSIG
LEPP - Pamplona
Actualización: 29/06/2022 20:30
Mostly Cloudy
Mostly Cloudy
 Viento del NNO
Viento: NNO 24 km/h
Temperatura: 17°C
Rocío: 12°C
Humedad: 73%
Barómetro: 1015 hPa
Nubosidad: Mostly Cloudy
Visibilidad: 10 km
Cloud details: Partly Cloudy 610 m
Mostly Cloudy 945 m
2022/06/29 18:30 LEPP 291830Z 34013KT 9999 SCT020 BKN031 17/12 Q1015
 
LEST - Santiago de Compostela
Actualización: 29/06/2022 20:30
Partly Cloudy
Partly Cloudy
 Viento del N
Viento: N 19 km/h
Temperatura: 15°C
Rocío: 9°C
Humedad: 68%
Barómetro: 1019 hPa
Nubosidad: Partly Cloudy
Visibilidad: 10 km
Cloud details: Partly Cloudy 762 m
Partly Cloudy 1158 m
2022/06/29 18:30 LEST 291830Z 35010KT 310V020 9999 SCT025 SCT038 15/09 Q1019 NOSIG
LEZL - Sevilla
Actualización: 29/06/2022 20:30
Despejado
Despejado
 Viento del SO
Viento: SO 20 km/h
Temperatura: 33°C
Rocío: 7°C
Humedad: 20%
Barómetro: 1010 hPa
Resumen: Despejado
Visibilidad: greater than 10 km
2022/06/29 18:30 LEZL 291830Z 23011KT 190V280 CAVOK 33/07 Q1010 NOSIG
GCXO - Tenerife
Actualización: 29/06/2022 20:30
Partly Cloudy
Partly Cloudy
 Viento del NO
Viento: NO 41 km/h
Temperatura: 17°C
Rocío: 12°C
Humedad: 73%
Barómetro: 1021 hPa
Nubosidad: Partly Cloudy
Visibilidad: 10 km
Cloud details: Few Clouds 213 m
Partly Cloudy 335 m
2022/06/29 18:30 GCXO 291830Z 32022KT 290V350 9999 FEW007 SCT011 17/12 Q1021 NOSIG
 
GCTS - Tenerife-Sur
Actualización: 29/06/2022 20:30
Few Clouds
Few Clouds
 Viento del E
Viento: E 39 km/h
Temperatura: 23°C
Rocío: 15°C
Humedad: 61%
Barómetro: 1018 hPa
Nubosidad: Few Clouds
Visibilidad: 10 km
Cloud details: Few Clouds 914 m
2022/06/29 18:30 GCTS 291830Z 08021KT 9999 FEW030 23/15 Q1018 NOSIG
LEVC - Valencia
Actualización: 29/06/2022 20:30
Few Clouds
Few Clouds
 Viento del E
Viento: E 22 km/h
Temperatura: 26°C
Rocío: 20°C
Humedad: 70%
Barómetro: 1010 hPa
Nubosidad: Few Clouds
Visibilidad: 10 km
Cloud details: Few Clouds 762 m
2022/06/29 18:30 LEVC 291830Z 08012KT 050V140 9999 FEW025 26/20 Q1010 NOSIG
LEVD - Valladolid
Actualización: 29/06/2022 20:30
Despejado
Despejado
 Viento del O
Viento: O 24 km/h
Temperatura: 23°C
Rocío: 4°C
Humedad: 29%
Barómetro: 1013 hPa
Resumen: Despejado
Visibilidad: greater than 10 km
2022/06/29 18:30 LEVD 291830Z 28013KT 250V320 CAVOK 23/04 Q1013
 
LEVX - Vigo
Actualización: 29/06/2022 20:30
Partly Cloudy
Partly Cloudy
 Viento del NO
Viento: NO 15 km/h
Temperatura: 17°C
Rocío: 11°C
Humedad: 68%
Barómetro: 1018 hPa
Nubosidad: Partly Cloudy
Visibilidad: 10 km
Cloud details: Few Clouds 914 m
Partly Cloudy 1372 m
2022/06/29 18:30 LEVX 291830Z 31008KT 250V350 9999 FEW030 SCT045 17/11 Q1018 NOSIG
LEVT - Vitoria
Actualización: 29/06/2022 20:30
Cubierto
Cubierto
 Viento del NNE
Viento: NNE 19 km/h
Temperatura: 15°C
Rocío: 11°C
Humedad: 77%
Barómetro: 1016 hPa
Nubosidad: Cubierto
Visibilidad: 10 km
Cloud details: Few Clouds 427 m
Cubierto 549 m
2022/06/29 18:30 LEVT 291830Z 02010KT 9999 FEW014 OVC018 15/11 Q1016
LEZG - Zaragoza
Actualización: 29/06/2022 20:30
Partly Cloudy
Partly Cloudy
 Viento del NO
Viento: NO 41 km/h, Racha: 59 km/h
Temperatura: 26°C
Rocío: 13°C
Humedad: 45%
Barómetro: 1008 hPa
Nubosidad: Partly Cloudy
Visibilidad: 9 km
Cloud details: Few Clouds 2134 m
Partly Cloudy 2438 m
2022/06/29 18:30 LEZG 291830Z 31022G32KT 260V340 9000 FEW070TCU SCT080 26/13 Q1008

La estación de MeteoMurcia.com, publica sus datos en los siguientes proyectos:

Weather Underground PWS IMURCIAP2 Meteoclimatic www.awekas.at

W3Counter
Web Analytics